sensor_id;sensor_type;location;lat;lon;timestamp;P1;durP1;ratioP1;P2;durP2;ratioP2
41705;SDS011;27385;51.096;17.190;2022-10-16T00:00:41;10.40;;;2.90;;
41705;SDS011;27385;51.096;17.190;2022-10-16T00:03:32;10.00;;;3.20;;
41705;SDS011;27385;51.096;17.190;2022-10-16T00:06:04;12.50;;;3.00;;
41705;SDS011;27385;51.096;17.190;2022-10-16T00:08:37;8.80;;;2.70;;
41705;SDS011;27385;51.096;17.190;2022-10-16T00:11:10;12.80;;;3.30;;
41705;SDS011;27385;51.096;17.190;2022-10-16T00:13:44;9.70;;;2.70;;
41705;SDS011;27385;51.096;17.190;2022-10-16T00:16:16;10.60;;;3.30;;
41705;SDS011;27385;51.096;17.190;2022-10-16T00:18:48;9.10;;;2.60;;
41705;SDS011;27385;51.096;17.190;2022-10-16T00:21:21;14.70;;;3.40;;
41705;SDS011;27385;51.096;17.190;2022-10-16T00:23:54;7.20;;;2.20;;
41705;SDS011;27385;51.096;17.190;2022-10-16T00:26:27;9.60;;;2.70;;
41705;SDS011;27385;51.096;17.190;2022-10-16T00:28:59;8.40;;;2.40;;
41705;SDS011;27385;51.096;17.190;2022-10-16T00:31:31;11.20;;;2.70;;
41705;SDS011;27385;51.096;17.190;2022-10-16T00:34:04;8.60;;;2.50;;
41705;SDS011;27385;51.096;17.190;2022-10-16T00:36:35;8.70;;;2.10;;
41705;SDS011;27385;51.096;17.190;2022-10-16T00:39:07;9.30;;;2.70;;
41705;SDS011;27385;51.096;17.190;2022-10-16T00:41:38;8.10;;;2.20;;
41705;SDS011;27385;51.096;17.190;2022-10-16T00:47:15;8.40;;;2.40;;
41705;SDS011;27385;51.096;17.190;2022-10-16T00:49:53;10.90;;;2.80;;
41705;SDS011;27385;51.096;17.190;2022-10-16T00:52:28;9.10;;;2.70;;
41705;SDS011;27385;51.096;17.190;2022-10-16T00:54:59;9.40;;;2.80;;
41705;SDS011;27385;51.096;17.190;2022-10-16T00:57:33;8.90;;;3.20;;
41705;SDS011;27385;51.096;17.190;2022-10-16T01:00:06;10.40;;;2.90;;
41705;SDS011;27385;51.096;17.190;2022-10-16T01:02:40;11.00;;;3.30;;
41705;SDS011;27385;51.096;17.190;2022-10-16T01:05:12;10.70;;;3.20;;
41705;SDS011;27385;51.096;17.190;2022-10-16T01:07:45;11.50;;;3.40;;
41705;SDS011;27385;51.096;17.190;2022-10-16T01:10:27;11.10;;;3.00;;
41705;SDS011;27385;51.096;17.190;2022-10-16T01:13:06;10.60;;;3.00;;
41705;SDS011;27385;51.096;17.190;2022-10-16T01:15:40;13.70;;;3.60;;
41705;SDS011;27385;51.096;17.190;2022-10-16T01:18:18;12.40;;;3.30;;
41705;SDS011;27385;51.096;17.190;2022-10-16T01:20:57;9.70;;;3.20;;
41705;SDS011;27385;51.096;17.190;2022-10-16T01:23:37;7.40;;;2.50;;
41705;SDS011;27385;51.096;17.190;2022-10-16T01:26:35;9.90;;;2.90;;
41705;SDS011;27385;51.096;17.190;2022-10-16T01:29:15;8.40;;;2.50;;
41705;SDS011;27385;51.096;17.190;2022-10-16T01:31:52;13.30;;;3.60;;
41705;SDS011;27385;51.096;17.190;2022-10-16T01:34:28;8.30;;;2.40;;
41705;SDS011;27385;51.096;17.190;2022-10-16T01:37:06;7.00;;;2.10;;
41705;SDS011;27385;51.096;17.190;2022-10-16T01:39:41;8.20;;;2.60;;
41705;SDS011;27385;51.096;17.190;2022-10-16T01:42:16;10.80;;;2.80;;
41705;SDS011;27385;51.096;17.190;2022-10-16T01:44:51;11.70;;;2.90;;
41705;SDS011;27385;51.096;17.190;2022-10-16T01:47:25;7.90;;;2.70;;
41705;SDS011;27385;51.096;17.190;2022-10-16T01:49:59;9.50;;;2.50;;
41705;SDS011;27385;51.096;17.190;2022-10-16T01:52:33;10.70;;;3.50;;
41705;SDS011;27385;51.096;17.190;2022-10-16T01:55:08;10.50;;;2.90;;
41705;SDS011;27385;51.096;17.190;2022-10-16T01:57:43;9.50;;;3.00;;
41705;SDS011;27385;51.096;17.190;2022-10-16T02:00:18;11.10;;;3.00;;
41705;SDS011;27385;51.096;17.190;2022-10-16T02:02:52;10.10;;;2.90;;
41705;SDS011;27385;51.096;17.190;2022-10-16T02:05:25;9.30;;;3.20;;
41705;SDS011;27385;51.096;17.190;2022-10-16T02:08:02;11.00;;;3.40;;
41705;SDS011;27385;51.096;17.190;2022-10-16T02:10:34;9.20;;;3.20;;
41705;SDS011;27385;51.096;17.190;2022-10-16T02:13:06;11.20;;;4.00;;
41705;SDS011;27385;51.096;17.190;2022-10-16T02:15:41;10.90;;;3.60;;
41705;SDS011;27385;51.096;17.190;2022-10-16T02:18:12;13.20;;;4.10;;
41705;SDS011;27385;51.096;17.190;2022-10-16T02:20:45;11.80;;;3.00;;
41705;SDS011;27385;51.096;17.190;2022-10-16T02:23:24;10.70;;;2.90;;
41705;SDS011;27385;51.096;17.190;2022-10-16T02:26:05;10.70;;;3.10;;
41705;SDS011;27385;51.096;17.190;2022-10-16T02:28:41;12.30;;;3.80;;
41705;SDS011;27385;51.096;17.190;2022-10-16T02:31:16;10.20;;;3.80;;
41705;SDS011;27385;51.096;17.190;2022-10-16T02:33:55;11.00;;;3.60;;
41705;SDS011;27385;51.096;17.190;2022-10-16T02:36:29;10.90;;;3.20;;
41705;SDS011;27385;51.096;17.190;2022-10-16T02:39:02;10.80;;;3.60;;
41705;SDS011;27385;51.096;17.190;2022-10-16T02:41:35;10.40;;;3.50;;
41705;SDS011;27385;51.096;17.190;2022-10-16T02:44:07;8.40;;;3.00;;
41705;SDS011;27385;51.096;17.190;2022-10-16T02:46:39;11.00;;;3.60;;
41705;SDS011;27385;51.096;17.190;2022-10-16T02:49:10;11.50;;;3.40;;
41705;SDS011;27385;51.096;17.190;2022-10-16T02:51:42;13.80;;;4.40;;
41705;SDS011;27385;51.096;17.190;2022-10-16T02:54:14;13.90;;;4.10;;
41705;SDS011;27385;51.096;17.190;2022-10-16T02:56:46;11.40;;;4.30;;
41705;SDS011;27385;51.096;17.190;2022-10-16T02:59:18;13.70;;;3.80;;
41705;SDS011;27385;51.096;17.190;2022-10-16T03:01:49;13.70;;;4.70;;
41705;SDS011;27385;51.096;17.190;2022-10-16T03:04:20;12.50;;;3.50;;
41705;SDS011;27385;51.096;17.190;2022-10-16T03:06:52;11.50;;;3.90;;
41705;SDS011;27385;51.096;17.190;2022-10-16T03:09:23;10.30;;;3.80;;
41705;SDS011;27385;51.096;17.190;2022-10-16T03:11:54;10.50;;;3.40;;
41705;SDS011;27385;51.096;17.190;2022-10-16T03:14:26;11.50;;;4.10;;
41705;SDS011;27385;51.096;17.190;2022-10-16T03:16:57;11.10;;;3.50;;
41705;SDS011;27385;51.096;17.190;2022-10-16T03:19:29;13.00;;;4.10;;
41705;SDS011;27385;51.096;17.190;2022-10-16T03:22:00;14.90;;;4.20;;
41705;SDS011;27385;51.096;17.190;2022-10-16T03:24:31;14.80;;;4.10;;
41705;SDS011;27385;51.096;17.190;2022-10-16T03:27:03;14.00;;;4.50;;
41705;SDS011;27385;51.096;17.190;2022-10-16T03:29:34;13.60;;;4.20;;
41705;SDS011;27385;51.096;17.190;2022-10-16T03:32:06;13.40;;;4.60;;
41705;SDS011;27385;51.096;17.190;2022-10-16T03:34:37;14.70;;;4.40;;
41705;SDS011;27385;51.096;17.190;2022-10-16T03:37:09;14.80;;;4.90;;
41705;SDS011;27385;51.096;17.190;2022-10-16T03:39:41;13.90;;;4.60;;
41705;SDS011;27385;51.096;17.190;2022-10-16T03:42:12;13.10;;;4.80;;
41705;SDS011;27385;51.096;17.190;2022-10-16T03:44:44;14.50;;;5.30;;
41705;SDS011;27385;51.096;17.190;2022-10-16T03:47:15;13.20;;;5.10;;
41705;SDS011;27385;51.096;17.190;2022-10-16T03:49:50;13.20;;;4.50;;
41705;SDS011;27385;51.096;17.190;2022-10-16T03:52:22;12.20;;;4.00;;
41705;SDS011;27385;51.096;17.190;2022-10-16T03:54:55;15.00;;;4.10;;
41705;SDS011;27385;51.096;17.190;2022-10-16T03:57:27;12.80;;;4.40;;
41705;SDS011;27385;51.096;17.190;2022-10-16T03:59:58;11.50;;;4.10;;
41705;SDS011;27385;51.096;17.190;2022-10-16T04:02:30;10.70;;;4.10;;
41705;SDS011;27385;51.096;17.190;2022-10-16T04:05:01;12.60;;;3.90;;
41705;SDS011;27385;51.096;17.190;2022-10-16T04:07:32;9.20;;;3.20;;
41705;SDS011;27385;51.096;17.190;2022-10-16T04:10:05;13.10;;;3.90;;
41705;SDS011;27385;51.096;17.190;2022-10-16T04:12:37;11.50;;;3.90;;
41705;SDS011;27385;51.096;17.190;2022-10-16T04:15:09;13.10;;;4.90;;
41705;SDS011;27385;51.096;17.190;2022-10-16T04:17:40;12.80;;;4.40;;
41705;SDS011;27385;51.096;17.190;2022-10-16T04:20:11;13.50;;;5.10;;
41705;SDS011;27385;51.096;17.190;2022-10-16T04:22:43;12.40;;;4.20;;
41705;SDS011;27385;51.096;17.190;2022-10-16T04:25:14;12.80;;;5.00;;
41705;SDS011;27385;51.096;17.190;2022-10-16T04:27:46;15.70;;;4.80;;
41705;SDS011;27385;51.096;17.190;2022-10-16T04:30:17;13.20;;;5.20;;
41705;SDS011;27385;51.096;17.190;2022-10-16T04:32:49;15.00;;;5.00;;
41705;SDS011;27385;51.096;17.190;2022-10-16T04:35:22;10.90;;;3.80;;
41705;SDS011;27385;51.096;17.190;2022-10-16T04:37:53;10.70;;;3.30;;
41705;SDS011;27385;51.096;17.190;2022-10-16T04:40:26;14.30;;;4.80;;
41705;SDS011;27385;51.096;17.190;2022-10-16T04:43:00;14.00;;;5.00;;
41705;SDS011;27385;51.096;17.190;2022-10-16T04:45:32;12.50;;;4.00;;
41705;SDS011;27385;51.096;17.190;2022-10-16T04:48:03;12.50;;;4.00;;
41705;SDS011;27385;51.096;17.190;2022-10-16T04:50:34;9.40;;;3.50;;
41705;SDS011;27385;51.096;17.190;2022-10-16T04:53:07;13.30;;;3.60;;
41705;SDS011;27385;51.096;17.190;2022-10-16T04:55:39;11.50;;;4.40;;
41705;SDS011;27385;51.096;17.190;2022-10-16T04:58:11;12.10;;;5.00;;
41705;SDS011;27385;51.096;17.190;2022-10-16T05:00:42;11.60;;;4.70;;
41705;SDS011;27385;51.096;17.190;2022-10-16T05:03:15;13.80;;;4.90;;
41705;SDS011;27385;51.096;17.190;2022-10-16T05:05:47;14.80;;;6.00;;
41705;SDS011;27385;51.096;17.190;2022-10-16T05:08:19;14.50;;;5.40;;
41705;SDS011;27385;51.096;17.190;2022-10-16T05:10:50;13.40;;;4.70;;
41705;SDS011;27385;51.096;17.190;2022-10-16T05:13:21;13.90;;;5.50;;
41705;SDS011;27385;51.096;17.190;2022-10-16T05:15:54;18.80;;;6.20;;
41705;SDS011;27385;51.096;17.190;2022-10-16T05:18:26;15.50;;;5.40;;
41705;SDS011;27385;51.096;17.190;2022-10-16T05:20:58;17.90;;;5.10;;
41705;SDS011;27385;51.096;17.190;2022-10-16T05:23:29;13.10;;;4.90;;
41705;SDS011;27385;51.096;17.190;2022-10-16T05:26:00;14.20;;;5.40;;
41705;SDS011;27385;51.096;17.190;2022-10-16T05:28:31;16.20;;;5.50;;
41705;SDS011;27385;51.096;17.190;2022-10-16T05:31:05;14.90;;;5.40;;
41705;SDS011;27385;51.096;17.190;2022-10-16T05:33:37;16.90;;;6.80;;
41705;SDS011;27385;51.096;17.190;2022-10-16T05:36:09;16.10;;;5.20;;
41705;SDS011;27385;51.096;17.190;2022-10-16T05:38:40;14.70;;;6.20;;
41705;SDS011;27385;51.096;17.190;2022-10-16T05:41:12;14.10;;;5.20;;
41705;SDS011;27385;51.096;17.190;2022-10-16T05:43:49;17.10;;;6.60;;
41705;SDS011;27385;51.096;17.190;2022-10-16T05:46:20;14.90;;;6.20;;
41705;SDS011;27385;51.096;17.190;2022-10-16T05:48:53;15.70;;;5.30;;
41705;SDS011;27385;51.096;17.190;2022-10-16T05:51:24;15.70;;;5.80;;
41705;SDS011;27385;51.096;17.190;2022-10-16T05:53:56;14.20;;;5.40;;
41705;SDS011;27385;51.096;17.190;2022-10-16T05:56:27;16.90;;;6.00;;
41705;SDS011;27385;51.096;17.190;2022-10-16T05:58:59;13.00;;;5.90;;
41705;SDS011;27385;51.096;17.190;2022-10-16T06:01:35;16.10;;;5.00;;
41705;SDS011;27385;51.096;17.190;2022-10-16T06:04:07;16.90;;;5.70;;
41705;SDS011;27385;51.096;17.190;2022-10-16T06:06:39;13.80;;;5.10;;
41705;SDS011;27385;51.096;17.190;2022-10-16T06:09:11;11.80;;;4.10;;
41705;SDS011;27385;51.096;17.190;2022-10-16T06:11:43;13.00;;;4.60;;
41705;SDS011;27385;51.096;17.190;2022-10-16T06:14:15;12.80;;;4.40;;
41705;SDS011;27385;51.096;17.190;2022-10-16T06:16:46;11.60;;;4.90;;
41705;SDS011;27385;51.096;17.190;2022-10-16T06:19:18;10.80;;;3.80;;
41705;SDS011;27385;51.096;17.190;2022-10-16T06:21:50;13.70;;;4.60;;
41705;SDS011;27385;51.096;17.190;2022-10-16T06:24:22;12.40;;;4.30;;
41705;SDS011;27385;51.096;17.190;2022-10-16T06:26:53;13.80;;;5.20;;
41705;SDS011;27385;51.096;17.190;2022-10-16T06:29:25;13.70;;;4.50;;
41705;SDS011;27385;51.096;17.190;2022-10-16T06:31:56;12.90;;;4.50;;
41705;SDS011;27385;51.096;17.190;2022-10-16T06:34:28;16.90;;;5.40;;
41705;SDS011;27385;51.096;17.190;2022-10-16T06:36:59;13.00;;;4.60;;
41705;SDS011;27385;51.096;17.190;2022-10-16T06:39:31;12.70;;;4.60;;
41705;SDS011;27385;51.096;17.190;2022-10-16T06:42:02;12.70;;;4.90;;
41705;SDS011;27385;51.096;17.190;2022-10-16T06:44:51;14.00;;;5.00;;
41705;SDS011;27385;51.096;17.190;2022-10-16T06:47:23;13.80;;;4.90;;
41705;SDS011;27385;51.096;17.190;2022-10-16T06:49:54;12.60;;;4.40;;
41705;SDS011;27385;51.096;17.190;2022-10-16T06:52:25;16.00;;;5.40;;
41705;SDS011;27385;51.096;17.190;2022-10-16T06:54:58;15.80;;;6.10;;
41705;SDS011;27385;51.096;17.190;2022-10-16T06:57:31;12.20;;;4.60;;
41705;SDS011;27385;51.096;17.190;2022-10-16T07:00:02;12.00;;;4.30;;
41705;SDS011;27385;51.096;17.190;2022-10-16T07:02:35;11.50;;;3.90;;
41705;SDS011;27385;51.096;17.190;2022-10-16T07:05:07;11.10;;;3.40;;
41705;SDS011;27385;51.096;17.190;2022-10-16T07:07:39;10.50;;;3.30;;
41705;SDS011;27385;51.096;17.190;2022-10-16T07:10:10;9.90;;;3.80;;
41705;SDS011;27385;51.096;17.190;2022-10-16T07:12:42;11.50;;;2.90;;
41705;SDS011;27385;51.096;17.190;2022-10-16T07:15:13;9.20;;;2.90;;
41705;SDS011;27385;51.096;17.190;2022-10-16T07:17:44;14.90;;;3.60;;
41705;SDS011;27385;51.096;17.190;2022-10-16T07:20:16;9.30;;;3.00;;
41705;SDS011;27385;51.096;17.190;2022-10-16T07:22:49;9.20;;;2.90;;
41705;SDS011;27385;51.096;17.190;2022-10-16T07:25:21;7.80;;;2.60;;
41705;SDS011;27385;51.096;17.190;2022-10-16T07:27:52;10.00;;;2.90;;
41705;SDS011;27385;51.096;17.190;2022-10-16T07:30:24;9.50;;;2.60;;
41705;SDS011;27385;51.096;17.190;2022-10-16T07:32:56;8.00;;;2.30;;
41705;SDS011;27385;51.096;17.190;2022-10-16T07:35:29;9.40;;;2.80;;
41705;SDS011;27385;51.096;17.190;2022-10-16T07:38:01;11.00;;;3.30;;
41705;SDS011;27385;51.096;17.190;2022-10-16T07:40:33;9.00;;;2.80;;
41705;SDS011;27385;51.096;17.190;2022-10-16T07:43:04;8.50;;;3.20;;
41705;SDS011;27385;51.096;17.190;2022-10-16T07:45:36;9.30;;;2.40;;
41705;SDS011;27385;51.096;17.190;2022-10-16T07:48:07;8.50;;;2.50;;
41705;SDS011;27385;51.096;17.190;2022-10-16T07:50:39;9.30;;;2.60;;
41705;SDS011;27385;51.096;17.190;2022-10-16T07:53:11;9.30;;;2.30;;
41705;SDS011;27385;51.096;17.190;2022-10-16T07:55:43;7.60;;;2.40;;
41705;SDS011;27385;51.096;17.190;2022-10-16T07:58:15;13.10;;;2.70;;
41705;SDS011;27385;51.096;17.190;2022-10-16T08:00:46;7.80;;;2.40;;
41705;SDS011;27385;51.096;17.190;2022-10-16T08:03:18;7.60;;;2.80;;
41705;SDS011;27385;51.096;17.190;2022-10-16T08:05:50;7.10;;;2.30;;
41705;SDS011;27385;51.096;17.190;2022-10-16T08:08:21;6.90;;;2.00;;
41705;SDS011;27385;51.096;17.190;2022-10-16T08:10:52;9.90;;;2.30;;
41705;SDS011;27385;51.096;17.190;2022-10-16T08:13:24;8.40;;;2.00;;
41705;SDS011;27385;51.096;17.190;2022-10-16T08:15:55;8.00;;;2.40;;
41705;SDS011;27385;51.096;17.190;2022-10-16T08:18:27;8.00;;;1.90;;
41705;SDS011;27385;51.096;17.190;2022-10-16T08:20:58;7.50;;;2.40;;
41705;SDS011;27385;51.096;17.190;2022-10-16T08:23:32;14.10;;;2.60;;
41705;SDS011;27385;51.096;17.190;2022-10-16T08:26:04;10.80;;;2.40;;
41705;SDS011;27385;51.096;17.190;2022-10-16T08:28:37;5.90;;;1.80;;
41705;SDS011;27385;51.096;17.190;2022-10-16T08:31:10;9.80;;;2.20;;
41705;SDS011;27385;51.096;17.190;2022-10-16T08:33:43;7.10;;;2.20;;
41705;SDS011;27385;51.096;17.190;2022-10-16T08:36:15;10.90;;;2.70;;
41705;SDS011;27385;51.096;17.190;2022-10-16T08:38:48;8.60;;;2.70;;
41705;SDS011;27385;51.096;17.190;2022-10-16T08:44:33;7.40;;;2.20;;
41705;SDS011;27385;51.096;17.190;2022-10-16T08:47:20;9.20;;;2.60;;
41705;SDS011;27385;51.096;17.190;2022-10-16T08:49:58;8.40;;;2.50;;
41705;SDS011;27385;51.096;17.190;2022-10-16T08:52:39;8.10;;;2.20;;
41705;SDS011;27385;51.096;17.190;2022-10-16T08:55:17;9.10;;;2.30;;
41705;SDS011;27385;51.096;17.190;2022-10-16T08:57:58;9.90;;;2.00;;
41705;SDS011;27385;51.096;17.190;2022-10-16T09:00:30;7.50;;;2.20;;
41705;SDS011;27385;51.096;17.190;2022-10-16T09:03:06;5.90;;;1.90;;
41705;SDS011;27385;51.096;17.190;2022-10-16T09:06:00;6.80;;;2.20;;
41705;SDS011;27385;51.096;17.190;2022-10-16T09:08:50;10.20;;;2.30;;
41705;SDS011;27385;51.096;17.190;2022-10-16T09:11:32;7.40;;;2.00;;
41705;SDS011;27385;51.096;17.190;2022-10-16T09:14:15;8.10;;;2.00;;
41705;SDS011;27385;51.096;17.190;2022-10-16T09:17:07;8.10;;;2.30;;
41705;SDS011;27385;51.096;17.190;2022-10-16T09:19:51;9.20;;;2.20;;
41705;SDS011;27385;51.096;17.190;2022-10-16T09:22:29;5.40;;;1.60;;
41705;SDS011;27385;51.096;17.190;2022-10-16T09:25:04;8.50;;;2.30;;
41705;SDS011;27385;51.096;17.190;2022-10-16T09:27:43;6.60;;;2.40;;
41705;SDS011;27385;51.096;17.190;2022-10-16T09:30:18;9.20;;;3.00;;
41705;SDS011;27385;51.096;17.190;2022-10-16T09:32:51;11.10;;;3.40;;
41705;SDS011;27385;51.096;17.190;2022-10-16T09:35:24;10.40;;;3.30;;
41705;SDS011;27385;51.096;17.190;2022-10-16T09:38:01;10.00;;;2.50;;
41705;SDS011;27385;51.096;17.190;2022-10-16T09:40:33;10.10;;;2.50;;
41705;SDS011;27385;51.096;17.190;2022-10-16T09:43:12;9.10;;;3.20;;
41705;SDS011;27385;51.096;17.190;2022-10-16T09:45:54;10.40;;;2.90;;
41705;SDS011;27385;51.096;17.190;2022-10-16T09:48:35;9.40;;;3.50;;
41705;SDS011;27385;51.096;17.190;2022-10-16T09:51:17;9.20;;;3.10;;
41705;SDS011;27385;51.096;17.190;2022-10-16T09:53:55;11.30;;;3.50;;
41705;SDS011;27385;51.096;17.190;2022-10-16T09:56:29;9.40;;;2.40;;
41705;SDS011;27385;51.096;17.190;2022-10-16T09:59:02;11.30;;;2.70;;
41705;SDS011;27385;51.096;17.190;2022-10-16T10:01:42;7.30;;;2.90;;
41705;SDS011;27385;51.096;17.190;2022-10-16T10:04:16;8.30;;;2.30;;
41705;SDS011;27385;51.096;17.190;2022-10-16T10:06:49;8.60;;;2.50;;
41705;SDS011;27385;51.096;17.190;2022-10-16T10:09:23;8.30;;;2.30;;
41705;SDS011;27385;51.096;17.190;2022-10-16T10:11:58;12.60;;;2.70;;
41705;SDS011;27385;51.096;17.190;2022-10-16T10:14:32;12.40;;;2.70;;
41705;SDS011;27385;51.096;17.190;2022-10-16T10:17:13;8.00;;;2.00;;
41705;SDS011;27385;51.096;17.190;2022-10-16T10:19:51;6.30;;;1.80;;
41705;SDS011;27385;51.096;17.190;2022-10-16T10:22:29;6.10;;;1.60;;
41705;SDS011;27385;51.096;17.190;2022-10-16T10:25:23;6.20;;;1.70;;
41705;SDS011;27385;51.096;17.190;2022-10-16T10:31:01;3.20;;;1.00;;
41705;SDS011;27385;51.096;17.190;2022-10-16T10:33:43;7.30;;;1.20;;
41705;SDS011;27385;51.096;17.190;2022-10-16T10:36:32;6.30;;;1.40;;
41705;SDS011;27385;51.096;17.190;2022-10-16T10:39:09;4.60;;;1.30;;
41705;SDS011;27385;51.096;17.190;2022-10-16T10:42:04;5.00;;;1.10;;
41705;SDS011;27385;51.096;17.190;2022-10-16T10:47:51;3.40;;;0.70;;
41705;SDS011;27385;51.096;17.190;2022-10-16T10:50:36;2.30;;;0.70;;
41705;SDS011;27385;51.096;17.190;2022-10-16T10:53:16;3.00;;;0.80;;
41705;SDS011;27385;51.096;17.190;2022-10-16T10:55:54;4.00;;;0.80;;
41705;SDS011;27385;51.096;17.190;2022-10-16T10:58:43;2.90;;;0.70;;
41705;SDS011;27385;51.096;17.190;2022-10-16T11:01:29;4.30;;;0.70;;
41705;SDS011;27385;51.096;17.190;2022-10-16T11:07:04;5.10;;;0.90;;
41705;SDS011;27385;51.096;17.190;2022-10-16T11:09:41;2.70;;;0.80;;
41705;SDS011;27385;51.096;17.190;2022-10-16T11:12:17;5.40;;;0.90;;
41705;SDS011;27385;51.096;17.190;2022-10-16T11:14:55;3.40;;;0.70;;
41705;SDS011;27385;51.096;17.190;2022-10-16T11:17:31;1.80;;;0.50;;
41705;SDS011;27385;51.096;17.190;2022-10-16T11:20:13;2.70;;;0.60;;
41705;SDS011;27385;51.096;17.190;2022-10-16T11:22:50;2.20;;;0.60;;
41705;SDS011;27385;51.096;17.190;2022-10-16T11:25:26;2.50;;;0.60;;
41705;SDS011;27385;51.096;17.190;2022-10-16T11:28:00;2.40;;;0.50;;
41705;SDS011;27385;51.096;17.190;2022-10-16T11:30:41;2.60;;;0.60;;
41705;SDS011;27385;51.096;17.190;2022-10-16T11:33:23;2.10;;;0.70;;
41705;SDS011;27385;51.096;17.190;2022-10-16T11:36:03;3.30;;;0.90;;
41705;SDS011;27385;51.096;17.190;2022-10-16T11:38:39;2.40;;;0.60;;
41705;SDS011;27385;51.096;17.190;2022-10-16T11:41:22;1.60;;;0.50;;
41705;SDS011;27385;51.096;17.190;2022-10-16T11:44:03;2.40;;;0.50;;
41705;SDS011;27385;51.096;17.190;2022-10-16T11:46:45;2.90;;;0.90;;
41705;SDS011;27385;51.096;17.190;2022-10-16T11:49:22;5.90;;;1.30;;
41705;SDS011;27385;51.096;17.190;2022-10-16T11:51:57;7.10;;;1.30;;
41705;SDS011;27385;51.096;17.190;2022-10-16T11:57:10;7.90;;;2.00;;
41705;SDS011;27385;51.096;17.190;2022-10-16T11:59:47;6.10;;;1.50;;
41705;SDS011;27385;51.096;17.190;2022-10-16T12:02:26;4.80;;;1.40;;
41705;SDS011;27385;51.096;17.190;2022-10-16T12:05:17;8.50;;;1.60;;
41705;SDS011;27385;51.096;17.190;2022-10-16T12:07:55;7.70;;;1.50;;
41705;SDS011;27385;51.096;17.190;2022-10-16T12:10:36;6.30;;;1.40;;
41705;SDS011;27385;51.096;17.190;2022-10-16T12:16:19;6.20;;;1.80;;
41705;SDS011;27385;51.096;17.190;2022-10-16T12:21:43;5.10;;;1.30;;
41705;SDS011;27385;51.096;17.190;2022-10-16T12:24:23;4.90;;;1.20;;
41705;SDS011;27385;51.096;17.190;2022-10-16T12:27:19;5.90;;;1.40;;
41705;SDS011;27385;51.096;17.190;2022-10-16T12:29:58;6.50;;;1.70;;
41705;SDS011;27385;51.096;17.190;2022-10-16T12:32:35;6.50;;;1.40;;
41705;SDS011;27385;51.096;17.190;2022-10-16T12:35:17;7.50;;;2.00;;
41705;SDS011;27385;51.096;17.190;2022-10-16T12:37:52;7.80;;;2.50;;
41705;SDS011;27385;51.096;17.190;2022-10-16T12:40:34;9.00;;;2.60;;
41705;SDS011;27385;51.096;17.190;2022-10-16T12:43:36;12.10;;;2.80;;
41705;SDS011;27385;51.096;17.190;2022-10-16T12:46:33;10.50;;;3.20;;
41705;SDS011;27385;51.096;17.190;2022-10-16T12:49:18;12.20;;;3.40;;
41705;SDS011;27385;51.096;17.190;2022-10-16T12:52:00;13.30;;;3.40;;
41705;SDS011;27385;51.096;17.190;2022-10-16T12:54:34;10.50;;;3.70;;
41705;SDS011;27385;51.096;17.190;2022-10-16T12:57:12;11.60;;;3.60;;
41705;SDS011;27385;51.096;17.190;2022-10-16T12:59:58;16.50;;;4.00;;
41705;SDS011;27385;51.096;17.190;2022-10-16T13:05:42;9.20;;;3.30;;
41705;SDS011;27385;51.096;17.190;2022-10-16T13:08:29;11.20;;;3.50;;
41705;SDS011;27385;51.096;17.190;2022-10-16T13:11:15;12.30;;;3.90;;
41705;SDS011;27385;51.096;17.190;2022-10-16T13:14:09;10.60;;;3.70;;
41705;SDS011;27385;51.096;17.190;2022-10-16T13:16:57;12.70;;;3.80;;
41705;SDS011;27385;51.096;17.190;2022-10-16T13:19:38;14.80;;;5.10;;
41705;SDS011;27385;51.096;17.190;2022-10-16T13:22:17;17.30;;;5.20;;
41705;SDS011;27385;51.096;17.190;2022-10-16T13:24:58;17.00;;;5.60;;
41705;SDS011;27385;51.096;17.190;2022-10-16T13:27:46;13.30;;;4.90;;
41705;SDS011;27385;51.096;17.190;2022-10-16T13:30:34;12.90;;;5.10;;
41705;SDS011;27385;51.096;17.190;2022-10-16T13:33:12;13.50;;;5.50;;
41705;SDS011;27385;51.096;17.190;2022-10-16T13:35:49;12.80;;;4.60;;
41705;SDS011;27385;51.096;17.190;2022-10-16T13:38:22;13.40;;;4.40;;
41705;SDS011;27385;51.096;17.190;2022-10-16T13:40:56;10.90;;;3.70;;
41705;SDS011;27385;51.096;17.190;2022-10-16T13:43:31;13.60;;;5.30;;
41705;SDS011;27385;51.096;17.190;2022-10-16T13:46:06;12.00;;;3.80;;
41705;SDS011;27385;51.096;17.190;2022-10-16T13:48:43;12.10;;;4.10;;
41705;SDS011;27385;51.096;17.190;2022-10-16T13:51:25;13.70;;;4.30;;
41705;SDS011;27385;51.096;17.190;2022-10-16T13:53:59;15.40;;;5.60;;
41705;SDS011;27385;51.096;17.190;2022-10-16T13:56:31;10.90;;;3.30;;
41705;SDS011;27385;51.096;17.190;2022-10-16T13:59:04;14.80;;;4.10;;
41705;SDS011;27385;51.096;17.190;2022-10-16T14:01:51;10.50;;;3.50;;
41705;SDS011;27385;51.096;17.190;2022-10-16T14:04:26;13.90;;;3.80;;
41705;SDS011;27385;51.096;17.190;2022-10-16T14:07:01;11.90;;;4.10;;
41705;SDS011;27385;51.096;17.190;2022-10-16T14:09:32;12.30;;;4.50;;
41705;SDS011;27385;51.096;17.190;2022-10-16T14:12:08;13.50;;;3.30;;
41705;SDS011;27385;51.096;17.190;2022-10-16T14:14:42;11.40;;;3.30;;
41705;SDS011;27385;51.096;17.190;2022-10-16T14:17:15;11.90;;;3.10;;
41705;SDS011;27385;51.096;17.190;2022-10-16T14:19:49;13.00;;;3.20;;
41705;SDS011;27385;51.096;17.190;2022-10-16T14:22:26;10.30;;;3.70;;
41705;SDS011;27385;51.096;17.190;2022-10-16T14:25:02;8.70;;;2.80;;
41705;SDS011;27385;51.096;17.190;2022-10-16T14:28:04;12.80;;;2.80;;
41705;SDS011;27385;51.096;17.190;2022-10-16T14:30:56;13.30;;;3.50;;
41705;SDS011;27385;51.096;17.190;2022-10-16T14:33:33;12.50;;;3.60;;
41705;SDS011;27385;51.096;17.190;2022-10-16T14:36:05;9.20;;;3.20;;
41705;SDS011;27385;51.096;17.190;2022-10-16T14:38:41;9.40;;;3.00;;
41705;SDS011;27385;51.096;17.190;2022-10-16T14:41:24;10.90;;;3.90;;
41705;SDS011;27385;51.096;17.190;2022-10-16T14:43:56;11.40;;;3.50;;
41705;SDS011;27385;51.096;17.190;2022-10-16T14:46:32;12.00;;;3.50;;
41705;SDS011;27385;51.096;17.190;2022-10-16T14:49:18;12.70;;;4.10;;
41705;SDS011;27385;51.096;17.190;2022-10-16T14:51:52;11.30;;;3.50;;
41705;SDS011;27385;51.096;17.190;2022-10-16T14:54:23;13.20;;;3.30;;
41705;SDS011;27385;51.096;17.190;2022-10-16T14:56:55;11.00;;;3.60;;
41705;SDS011;27385;51.096;17.190;2022-10-16T14:59:28;13.50;;;2.80;;
41705;SDS011;27385;51.096;17.190;2022-10-16T15:02:08;16.10;;;4.40;;
41705;SDS011;27385;51.096;17.190;2022-10-16T15:04:50;10.50;;;3.60;;
41705;SDS011;27385;51.096;17.190;2022-10-16T15:07:24;12.30;;;3.90;;
41705;SDS011;27385;51.096;17.190;2022-10-16T15:09:55;9.50;;;3.50;;
41705;SDS011;27385;51.096;17.190;2022-10-16T15:12:27;13.50;;;4.30;;
41705;SDS011;27385;51.096;17.190;2022-10-16T15:14:58;9.70;;;4.20;;
41705;SDS011;27385;51.096;17.190;2022-10-16T15:17:30;12.80;;;4.10;;
41705;SDS011;27385;51.096;17.190;2022-10-16T15:20:02;18.50;;;4.80;;
41705;SDS011;27385;51.096;17.190;2022-10-16T15:22:34;14.70;;;5.80;;
41705;SDS011;27385;51.096;17.190;2022-10-16T15:25:09;17.40;;;6.10;;
41705;SDS011;27385;51.096;17.190;2022-10-16T15:27:54;13.10;;;5.00;;
41705;SDS011;27385;51.096;17.190;2022-10-16T15:30:25;18.40;;;5.60;;
41705;SDS011;27385;51.096;17.190;2022-10-16T15:32:57;11.60;;;4.40;;
41705;SDS011;27385;51.096;17.190;2022-10-16T15:35:29;19.40;;;5.40;;
41705;SDS011;27385;51.096;17.190;2022-10-16T15:38:00;11.70;;;4.30;;
41705;SDS011;27385;51.096;17.190;2022-10-16T15:40:32;13.80;;;5.10;;